Time;durP1;ratioP1;P1;durP2;ratioP2;P2;SDS_P1;SDS_P2;PMS_P1;PMS_P2;Temp;Humidity;BMP_temperature;BMP_pressure;BME280_temperature;BME280_humidity;BME280_pressure;Samples;Min_cycle;Max_cycle;Signal;HPM_P1;HPM_P2
2023/10/07 00:02:30;;;;;;;36.30;23.20;;;20.90;99.90;;;;;;5030465;28;20044;-67
2023/10/07 00:08:39;;;;;;;34.00;23.10;;;20.90;99.90;;;;;;5031029;28;20125;-67
2023/10/07 00:11:46;;;;;;;30.00;21.27;;;20.80;99.90;;;;;;5030959;28;20555;-67
2023/10/07 00:14:50;;;;;;;29.02;21.50;;;20.90;99.90;;;;;;5031122;28;20056;-67
2023/10/07 00:18:12;;;;;;;30.25;19.92;;;20.90;99.90;;;;;;5030947;28;20396;-68
2023/10/07 00:21:24;;;;;;;35.13;22.45;;;20.90;99.90;;;;;;5030962;28;20056;-67
2023/10/07 00:24:32;;;;;;;31.30;21.80;;;20.80;99.80;;;;;;5030142;28;20048;-67
2023/10/07 00:27:38;;;;;;;31.98;21.50;;;20.60;99.80;;;;;;5030628;28;20480;-67
2023/10/07 00:30:43;;;;;;;33.30;21.70;;;20.40;99.90;;;;;;5030657;28;20041;-69
2023/10/07 00:33:57;;;;;;;28.70;21.45;;;20.30;99.90;;;;;;5030886;28;20052;-67
2023/10/07 00:37:01;;;;;;;29.02;21.08;;;20.40;99.90;;;;;;5033097;28;20397;-67
2023/10/07 00:43:33;;;;;;;25.48;20.75;;;20.20;99.90;;;;;;5034572;28;20052;-67
2023/10/07 00:46:41;;;;;;;25.48;20.10;;;20.30;99.90;;;;;;5033553;28;20204;-68
2023/10/07 00:55:58;;;;;;;29.58;20.65;;;20.40;99.90;;;;;;5034014;28;20045;-69
2023/10/07 00:59:07;;;;;;;31.67;21.65;;;20.40;99.90;;;;;;5033208;28;20052;-68
2023/10/07 01:02:18;;;;;;;29.75;22.00;;;20.20;99.90;;;;;;5033562;28;20064;-69
2023/10/07 01:05:26;;;;;;;;;;;20.20;99.90;;;;;;5034390;28;20048;-68
2023/10/07 01:08:50;;;;;;;30.98;21.20;;;19.90;99.90;;;;;;5034010;28;19924;-68
2023/10/07 01:11:57;;;;;;;30.60;21.48;;;20.10;99.90;;;;;;5033276;28;20045;-67
2023/10/07 01:15:03;;;;;;;29.65;20.65;;;20.20;99.90;;;;;;5033893;28;20060;-69
2023/10/07 01:18:06;;;;;;;26.48;19.48;;;20.10;99.90;;;;;;5033135;28;20040;-67
2023/10/07 01:21:30;;;;;;;29.95;19.88;;;19.90;99.90;;;;;;5032893;28;20064;-68
2023/10/07 01:27:49;;;;;;;32.33;21.02;;;19.70;99.90;;;;;;5033452;28;20409;-68
2023/10/07 01:34:19;;;;;;;27.55;20.52;;;19.80;99.90;;;;;;5033567;28;20151;-67
2023/10/07 01:37:24;;;;;;;28.55;20.00;;;19.80;99.90;;;;;;5033538;28;20037;-66
2023/10/07 01:40:34;;;;;;;27.17;20.52;;;19.90;99.90;;;;;;5033579;28;20504;-68
2023/10/07 01:43:41;;;;;;;32.65;20.73;;;18.60;99.90;;;;;;5033421;28;20044;-68
2023/10/07 01:46:45;;;;;;;26.67;19.55;;;19.70;99.90;;;;;;5033261;28;20068;-68
2023/10/07 01:49:53;;;;;;;24.60;18.38;;;19.60;99.90;;;;;;5032651;28;20512;-68
2023/10/07 01:52:58;;;;;;;23.33;18.40;;;19.60;99.90;;;;;;5032123;28;20036;-67
2023/10/07 01:56:04;;;;;;;28.02;18.70;;;19.70;99.90;;;;;;5032186;28;20052;-67
2023/10/07 01:59:17;;;;;;;30.27;19.13;;;19.60;99.90;;;;;;5032190;28;20041;-67
2023/10/07 02:02:25;;;;;;;25.45;17.77;;;19.70;99.90;;;;;;5032043;28;20037;-67
2023/10/07 02:05:40;;;;;;;26.00;18.05;;;19.70;99.90;;;;;;5033048;28;20044;-67
2023/10/07 02:08:46;;;;;;;27.83;18.90;;;19.80;99.90;;;;;;5032972;28;20060;-67
2023/10/07 02:12:00;;;;;;;27.15;17.58;;;19.70;99.90;;;;;;5032164;28;20044;-67
2023/10/07 02:15:15;;;;;;;26.77;17.15;;;19.80;99.80;;;;;;5031872;28;20056;-67
2023/10/07 02:18:20;;;;;;;23.50;17.95;;;21.20;99.60;;;;;;5032155;28;20507;-67
2023/10/07 02:21:26;;;;;;;27.98;16.58;;;19.70;99.30;;;;;;5031942;28;20396;-67
2023/10/07 02:24:32;;;;;;;21.88;16.73;;;18.30;98.90;;;;;;5031861;28;20052;-67
2023/10/07 02:27:43;;;;;;;26.23;16.75;;;19.90;99.40;;;;;;5032225;28;20048;-67
2023/10/07 02:31:00;;;;;;;24.05;16.60;;;19.60;99.50;;;;;;5031630;28;20060;-67
2023/10/07 02:34:08;;;;;;;27.02;16.83;;;19.00;99.10;;;;;;5031606;28;20052;-67
2023/10/07 02:37:13;;;;;;;27.55;18.13;;;19.60;99.30;;;;;;5032243;28;20044;-67
2023/10/07 02:40:35;;;;;;;23.95;17.23;;;18.80;99.30;;;;;;5032345;28;20049;-67
2023/10/07 02:43:43;;;;;;;24.67;16.45;;;19.10;99.30;;;;;;5032424;28;20045;-67
2023/10/07 02:46:52;;;;;;;23.02;16.90;;;;;;;;;;5031788;28;20044;-67
2023/10/07 02:50:00;;;;;;;26.33;16.98;;;19.40;99.60;;;;;;5031153;28;20515;-68
2023/10/07 02:53:11;;;;;;;26.63;17.65;;;20.50;99.90;;;;;;5031960;28;20041;-68
2023/10/07 02:56:17;;;;;;;26.88;17.17;;;19.20;99.50;;;;;;5032147;28;20404;-68
2023/10/07 02:59:28;;;;;;;25.48;17.23;;;20.40;99.80;;;;;;5031101;28;20041;-68
2023/10/07 03:02:48;;;;;;;29.20;18.92;;;;;;;;;;5031850;28;20492;-67
2023/10/07 03:05:58;;;;;;;23.52;18.10;;;17.90;99.30;;;;;;5031931;28;20040;-67
2023/10/07 03:09:10;;;;;;;28.20;19.50;;;17.80;99.10;;;;;;5031837;28;20048;-66
2023/10/07 03:12:27;;;;;;;29.23;19.05;;;20.20;99.80;;;;;;5030962;28;20049;-67
2023/10/07 03:18:41;;;;;;;33.50;20.20;;;;;;;;;;5031400;28;20037;-67
2023/10/07 03:22:33;;;;;;;27.80;19.33;;;22.70;99.90;;;;;;5031457;28;20052;-67
2023/10/07 03:25:16;;;;;;;25.92;18.08;;;18.10;98.70;;;;;;5035538;28;20052;-67
2023/10/07 03:28:21;;;;;;;34.25;17.70;;;19.30;99.20;;;;;;5030361;28;20080;-67
2023/10/07 03:32:12;;;;;;;26.33;18.33;;;;;;;;;;5031471;28;20064;-67
2023/10/07 03:34:53;;;;;;;25.92;19.73;;;20.30;99.90;;;;;;5031762;28;20040;-67
2023/10/07 03:37:57;;;;;;;31.27;19.05;;;;;;;;;;5031470;28;20500;-67
2023/10/07 03:41:09;;;;;;;25.50;18.00;;;19.90;99.80;;;;;;5031282;28;20044;-67
2023/10/07 03:44:17;;;;;;;26.65;18.35;;;19.00;99.60;;;;;;5030397;28;20040;-67
2023/10/07 03:47:21;;;;;;;23.52;17.50;;;19.00;99.80;;;;;;5030938;28;20060;-67
2023/10/07 03:50:34;;;;;;;24.38;17.05;;;;;;;;;;5031098;28;20409;-67
2023/10/07 03:53:47;;;;;;;25.30;17.63;;;18.80;99.30;;;;;;5018897;28;20408;-67
2023/10/07 03:56:51;;;;;;;25.70;18.60;;;;;;;;;;5030886;28;20049;-67
2023/10/07 03:59:56;;;;;;;28.48;18.23;;;18.90;99.40;;;;;;5030773;28;20045;-66
2023/10/07 04:03:07;;;;;;;26.45;17.52;;;;;;;;;;5031143;28;20044;-67
2023/10/07 04:06:11;;;;;;;22.55;16.60;;;;;;;;;;5030752;28;20405;-67
2023/10/07 04:09:16;;;;;;;27.60;19.30;;;19.10;99.00;;;;;;5031174;28;20061;-67
2023/10/07 04:12:22;;;;;;;23.75;17.30;;;;;;;;;;5034032;28;20076;-67
2023/10/07 04:15:30;;;;;;;33.97;18.52;;;;;;;;;;5035133;28;20060;-67
2023/10/07 04:18:36;;;;;;;29.63;17.90;;;;;;;;;;5034881;28;20045;-67
2023/10/07 04:21:40;;;;;;;25.90;16.58;;;;;;;;;;5035199;28;20067;-69
2023/10/07 04:24:45;;;;;;;26.20;17.38;;;;;;;;;;5034788;28;20404;-67
2023/10/07 04:27:53;;;;;;;31.23;17.85;;;;;;;;;;5034604;28;20052;-68
2023/10/07 04:30:57;;;;;;;24.95;17.58;;;18.90;99.10;;;;;;5034922;28;20492;-68
2023/10/07 04:34:03;;;;;;;29.45;17.95;;;20.30;99.30;;;;;;5034481;28;20048;-68
2023/10/07 04:37:13;;;;;;;27.42;17.15;;;;;;;;;;5034663;28;20041;-68
2023/10/07 04:43:25;;;;;;;27.63;17.17;;;;;;;;;;5034723;28;20044;-68
2023/10/07 04:46:29;;;;;;;28.25;18.13;;;18.70;99.10;;;;;;5034240;28;20048;-68
2023/10/07 04:49:37;;;;;;;23.55;16.70;;;;;;;;;;5034332;28;20048;-67
2023/10/07 04:52:50;;;;;;;25.23;17.48;;;;;;;;;;5034598;28;20048;-67
2023/10/07 04:56:01;;;;;;;29.45;17.90;;;;;;;;;;5034156;28;20044;-68
2023/10/07 04:59:10;;;;;;;41.97;19.50;;;;;;;;;;5034410;28;20044;-68
2023/10/07 05:02:15;;;;;;;38.15;18.80;;;;;;;;;;5034215;28;20078;-68
2023/10/07 05:05:24;;;;;;;24.77;17.65;;;;;;;;;;5034288;28;20044;-67
2023/10/07 05:08:28;;;;;;;25.77;18.38;;;18.60;99.00;;;;;;5033849;28;20052;-68
2023/10/07 05:11:32;;;;;;;33.85;18.45;;;;;;;;;;5034104;28;20569;-68
2023/10/07 05:14:36;;;;;;;34.85;19.27;;;;;;;;;;5034058;28;20053;-68
2023/10/07 05:17:41;;;;;;;35.13;21.17;;;;;;;;;;5033274;28;20650;-67
2023/10/07 05:20:48;;;;;;;34.78;21.20;;;;;;;;;;5034131;28;20048;-67
2023/10/07 05:23:51;;;;;;;41.70;22.05;;;;;;;;;;5032785;28;20060;-67
2023/10/07 05:26:59;;;;;;;42.50;23.73;;;18.50;98.90;;;;;;5033933;28;20041;-68
2023/10/07 05:30:04;;;;;;;42.35;23.77;;;;;;;;;;5033607;28;20057;-67
2023/10/07 05:33:09;;;;;;;34.53;22.60;;;;;;;;;;5033770;28;20040;-67
2023/10/07 05:36:14;;;;;;;40.28;22.63;;;18.60;99.20;;;;;;5033817;28;20057;-68
2023/10/07 05:39:18;;;;;;;44.53;25.65;;;19.10;99.10;;;;;;5033632;28;20045;-68
2023/10/07 05:42:22;;;;;;;86.80;51.03;;;18.90;97.40;;;;;;5033929;28;20192;-69
2023/10/07 05:45:26;;;;;;;44.80;23.33;;;;;;;;;;5032778;28;20044;-67
2023/10/07 05:48:30;;;;;;;36.50;19.80;;;21.50;95.70;;;;;;5033271;28;20499;-67
2023/10/07 05:51:36;;;;;;;34.38;20.40;;;;;;;;;;5033653;28;20357;-68
2023/10/07 05:54:43;;;;;;;39.85;21.02;;;20.80;94.10;;;;;;5033638;28;20048;-63
2023/10/07 05:57:48;;;;;;;36.72;19.52;;;;;;;;;;5033502;28;20484;-62
2023/10/07 06:00:52;;;;;;;30.38;18.60;;;23.00;92.30;;;;;;5033351;28;20040;-63
2023/10/07 06:03:58;;;;;;;31.17;17.20;;;23.20;92.00;;;;;;5031826;28;20040;-63
2023/10/07 06:07:07;;;;;;;38.08;17.35;;;24.50;91.80;;;;;;5032868;28;20052;-64
2023/10/07 06:10:11;;;;;;;32.85;18.42;;;23.50;91.80;;;;;;5032927;28;20397;-63
2023/10/07 06:13:15;;;;;;;40.63;17.90;;;23.60;91.80;;;;;;5032521;28;20049;-64
2023/10/07 06:16:20;;;;;;;28.27;17.33;;;23.60;91.70;;;;;;5032962;28;20041;-62
2023/10/07 06:19:24;;;;;;;32.67;19.33;;;23.70;91.90;;;;;;5032672;28;20059;-63
2023/10/07 06:22:27;;;;;;;37.05;18.40;;;23.80;91.90;;;;;;5032435;28;20504;-64
2023/10/07 06:25:33;;;;;;;30.23;18.25;;;23.80;91.90;;;;;;5032273;28;20069;-64
2023/10/07 06:28:43;;;;;;;35.33;18.63;;;23.90;91.70;;;;;;5032193;28;20057;-61
2023/10/07 06:35:21;;;;;;;38.03;19.60;;;24.00;91.80;;;;;;5031100;28;20524;-62
2023/10/07 06:38:26;;;;;;;33.55;20.15;;;23.80;91.80;;;;;;5032411;28;20040;-63
2023/10/07 06:41:30;;;;;;;42.35;20.88;;;23.80;92.20;;;;;;5031992;28;20060;-63
2023/10/07 06:44:35;;;;;;;29.77;19.88;;;23.90;92.30;;;;;;5032069;28;20044;-63
2023/10/07 06:47:38;;;;;;;43.10;21.67;;;24.00;91.90;;;;;;5031980;28;20041;-62
2023/10/07 06:50:45;;;;;;;45.38;22.30;;;23.90;92.20;;;;;;5031823;28;20604;-62
2023/10/07 06:53:49;;;;;;;44.80;23.00;;;23.90;92.00;;;;;;5031988;28;20039;-62
2023/10/07 06:56:54;;;;;;;54.10;26.23;;;24.00;92.10;;;;;;5031726;28;20044;-64
2023/10/07 06:59:58;;;;;;;48.35;26.60;;;24.20;91.70;;;;;;5031840;28;20045;-63
2023/10/07 07:03:09;;;;;;;39.75;23.38;;;24.20;91.10;;;;;;5031782;28;20045;-60
2023/10/07 07:06:33;;;;;;;56.40;25.45;;;24.20;91.30;;;;;;5031564;28;20040;-61
2023/10/07 07:09:42;;;;;;;45.22;23.20;;;24.10;91.60;;;;;;5031895;28;20053;-62
2023/10/07 07:12:47;;;;;;;43.08;21.80;;;24.30;91.70;;;;;;5030805;28;20057;-63
2023/10/07 07:15:58;;;;;;;33.83;21.33;;;24.40;91.60;;;;;;5029644;28;20048;-62
2023/10/07 07:19:06;;;;;;;40.15;20.83;;;24.80;91.00;;;;;;5030152;28;20048;-62
2023/10/07 07:22:11;;;;;;;35.25;21.35;;;24.90;90.60;;;;;;5029666;28;20045;-64
2023/10/07 07:25:39;;;;;;;45.85;21.75;;;24.90;90.90;;;;;;5029890;28;20045;-62
2023/10/07 07:28:45;;;;;;;23.45;16.75;;;25.00;90.70;;;;;;5029568;28;20068;-62
2023/10/07 07:31:49;;;;;;;37.10;21.42;;;25.00;90.80;;;;;;5031105;28;20260;-61
2023/10/07 07:34:56;;;;;;;33.85;20.45;;;25.20;90.40;;;;;;5031467;28;20052;-62
2023/10/07 07:38:02;;;;;;;26.02;17.98;;;25.20;90.10;;;;;;5031386;28;20052;-62
2023/10/07 07:41:08;;;;;;;32.88;19.13;;;25.30;89.50;;;;;;5031131;28;20060;-66
2023/10/07 07:44:13;;;;;;;31.77;16.40;;;24.20;86.80;;;;;;5030804;28;20500;-62
2023/10/07 07:47:20;;;;;;;25.83;17.08;;;25.50;86.90;;;;;;5030300;28;20056;-62
2023/10/07 07:50:24;;;;;;;21.10;13.38;;;25.50;85.40;;;;;;5031314;28;20096;-63
2023/10/07 07:53:30;;;;;;;29.10;14.98;;;25.50;85.70;;;;;;5030352;28;20074;-61
2023/10/07 07:56:36;;;;;;;24.83;16.58;;;25.40;85.30;;;;;;5030735;28;20045;-62
2023/10/07 07:59:43;;;;;;;26.67;16.60;;;25.20;85.60;;;;;;5030710;28;20053;-62
2023/10/07 08:02:50;;;;;;;25.02;13.38;;;25.00;86.70;;;;;;5030629;28;20036;-62
2023/10/07 08:05:54;;;;;;;17.20;12.02;;;25.00;87.20;;;;;;5030797;28;20495;-62
2023/10/07 08:09:02;;;;;;;26.52;12.77;;;25.20;86.90;;;;;;5030587;28;20057;-63
2023/10/07 08:12:09;;;;;;;24.92;14.27;;;25.50;86.50;;;;;;5030452;28;20117;-67
2023/10/07 08:18:22;;;;;;;22.77;14.27;;;25.90;84.10;;;;;;5030763;28;20040;-63
2023/10/07 08:21:29;;;;;;;22.20;12.32;;;25.90;84.50;;;;;;5030581;28;20041;-65
2023/10/07 08:24:39;;;;;;;20.95;13.02;;;26.10;84.80;;;;;;5030907;28;20049;-62
2023/10/07 08:27:49;;;;;;;19.02;12.20;;;26.60;85.30;;;;;;5030562;28;20056;-64
2023/10/07 08:30:54;;;;;;;20.83;13.20;;;26.40;84.20;;;;;;5030717;28;20053;-63
2023/10/07 08:37:15;;;;;;;15.80;10.52;;;26.40;82.50;;;;;;5030355;28;20503;-63
2023/10/07 08:40:26;;;;;;;15.88;10.35;;;26.40;81.50;;;;;;5030755;28;20053;-65
2023/10/07 08:43:37;;;;;;;15.88;11.15;;;26.40;81.30;;;;;;5030440;28;20509;-64
2023/10/07 08:47:39;;;;;;;16.77;10.18;;;26.50;81.20;;;;;;5030681;28;20052;-63
2023/10/07 08:50:14;;;;;;;13.02;9.50;;;26.90;82.00;;;;;;5034830;28;20056;-63
2023/10/07 08:53:23;;;;;;;20.10;10.95;;;26.70;82.00;;;;;;5030461;28;20072;-63
2023/10/07 08:56:28;;;;;;;16.15;9.45;;;26.70;81.00;;;;;;5030317;28;20046;-63
2023/10/07 08:59:33;;;;;;;17.60;10.13;;;26.80;81.10;;;;;;5033488;28;20369;-64
2023/10/07 09:02:40;;;;;;;15.02;9.02;;;26.30;80.20;;;;;;5034034;28;20049;-63
2023/10/07 09:05:47;;;;;;;13.48;8.40;;;27.00;79.60;;;;;;5034054;28;20060;-63
2023/10/07 09:08:52;;;;;;;12.93;8.80;;;27.10;79.00;;;;;;5033098;28;20512;-63
2023/10/07 09:12:01;;;;;;;14.63;8.50;;;27.20;78.60;;;;;;5033358;28;20044;-63
2023/10/07 09:15:12;;;;;;;12.70;8.27;;;27.30;78.70;;;;;;5021281;28;20045;-62
2023/10/07 09:18:17;;;;;;;;;;;27.40;79.30;;;;;;5033902;28;20124;-64
2023/10/07 09:21:22;;;;;;;19.27;10.07;;;27.50;78.70;;;;;;5032540;28;19916;-64
2023/10/07 09:24:26;;;;;;;12.90;8.45;;;27.50;77.90;;;;;;5032882;28;20040;-63
2023/10/07 09:27:39;;;;;;;10.52;7.35;;;27.10;77.30;;;;;;5032850;28;20048;-64
2023/10/07 09:33:49;;;;;;;14.23;8.18;;;27.80;75.70;;;;;;5033666;28;20536;-63
2023/10/07 09:36:54;;;;;;;12.43;8.48;;;27.90;76.30;;;;;;5033633;28;20048;-63
2023/10/07 09:43:33;;;;;;;12.98;8.77;;;28.30;76.00;;;;;;5033078;28;20044;-64
2023/10/07 09:46:40;;;;;;;13.55;8.20;;;28.20;76.50;;;;;;5032882;28;20045;-64
2023/10/07 09:49:44;;;;;;;15.95;8.60;;;28.10;75.70;;;;;;5033000;28;20053;-63
2023/10/07 09:53:14;;;;;;;10.15;6.90;;;28.40;74.90;;;;;;5032165;28;20532;-63
2023/10/07 09:56:29;;;;;;;16.30;8.07;;;28.90;75.00;;;;;;5033055;28;20504;-63
2023/10/07 09:59:53;;;;;;;17.30;9.90;;;28.60;74.80;;;;;;5032754;28;20057;-64
2023/10/07 10:03:36;;;;;;;13.73;8.70;;;28.70;73.10;;;;;;5031858;28;20048;-63
2023/10/07 10:07:06;;;;;;;14.32;8.13;;;29.00;73.70;;;;;;5032708;28;20049;-63
2023/10/07 10:10:14;;;;;;;16.98;8.75;;;28.80;74.20;;;;;;5031016;28;20527;-66
2023/10/07 10:13:29;;;;;;;12.13;8.68;;;28.20;73.80;;;;;;5032326;28;20400;-62
2023/10/07 10:16:45;;;;;;;11.98;7.93;;;29.10;73.00;;;;;;5032713;28;20044;-63
2023/10/07 10:20:00;;;;;;;21.38;9.48;;;29.10;73.60;;;;;;5032535;28;20097;-63
2023/10/07 10:23:07;;;;;;;17.50;8.80;;;29.10;72.00;;;;;;5032581;28;20048;-64
2023/10/07 10:26:20;;;;;;;17.13;9.30;;;29.20;73.00;;;;;;5032186;28;20500;-65
2023/10/07 10:29:31;;;;;;;13.25;8.05;;;29.20;72.50;;;;;;5031981;28;20136;-63
2023/10/07 10:32:36;;;;;;;10.50;7.40;;;29.20;72.30;;;;;;5032574;28;20049;-62
2023/10/07 10:35:42;;;;;;;15.35;7.38;;;29.30;72.10;;;;;;5032319;28;20420;-63
2023/10/07 10:38:47;;;;;;;15.55;8.10;;;29.20;72.60;;;;;;5032365;28;20044;-63
2023/10/07 10:41:51;;;;;;;14.05;8.68;;;29.20;72.20;;;;;;5031348;28;20056;-63
2023/10/07 10:44:55;;;;;;;16.23;9.55;;;29.20;71.30;;;;;;5031886;28;20045;-64
2023/10/07 10:47:59;;;;;;;16.52;9.05;;;29.20;72.50;;;;;;5031948;28;20048;-63
2023/10/07 10:51:07;;;;;;;12.68;8.85;;;29.10;73.50;;;;;;5031869;28;20413;-63
2023/10/07 10:54:13;;;;;;;14.93;8.82;;;29.00;73.70;;;;;;5031765;28;20058;-64
2023/10/07 10:57:19;;;;;;;13.55;8.45;;;29.00;73.90;;;;;;5031987;28;20052;-64
2023/10/07 11:00:23;;;;;;;14.82;9.20;;;28.80;73.10;;;;;;5031126;28;20044;-64
2023/10/07 11:03:27;;;;;;;14.52;8.57;;;28.80;74.10;;;;;;5031784;28;20044;-64
2023/10/07 11:06:31;;;;;;;15.75;9.98;;;28.90;74.70;;;;;;5031803;28;20404;-65
2023/10/07 11:09:37;;;;;;;18.15;10.05;;;28.80;74.80;;;;;;5031542;28;20508;-64
2023/10/07 11:12:45;;;;;;;13.77;9.77;;;28.70;75.10;;;;;;5031488;28;20115;-64
2023/10/07 11:16:12;;;;;;;15.43;9.73;;;28.70;75.40;;;;;;5031596;28;20040;-65
2023/10/07 11:19:16;;;;;;;20.27;9.93;;;28.70;75.80;;;;;;5031867;28;20048;-64
2023/10/07 11:22:21;;;;;;;12.60;9.10;;;28.60;75.50;;;;;;5030813;28;20044;-61
2023/10/07 11:25:28;;;;;;;19.20;11.63;;;28.60;75.70;;;;;;5031623;28;20491;-63
2023/10/07 11:28:33;;;;;;;19.42;10.30;;;28.50;74.90;;;;;;5031425;28;20052;-65
2023/10/07 11:31:37;;;;;;;20.35;10.32;;;28.50;75.60;;;;;;5031343;28;20040;-64
2023/10/07 11:34:45;;;;;;;17.48;10.98;;;28.40;76.60;;;;;;5031237;28;20067;-64
2023/10/07 11:38:02;;;;;;;13.27;9.70;;;28.40;76.40;;;;;;5031377;28;20045;-62
2023/10/07 11:41:10;;;;;;;13.57;9.95;;;28.40;76.20;;;;;;5031508;28;20048;-64
2023/10/07 11:44:16;;;;;;;20.70;9.90;;;28.40;76.70;;;;;;5031266;28;20045;-64
2023/10/07 11:47:21;;;;;;;16.92;11.52;;;27.60;76.60;;;;;;5031148;28;20044;-63
2023/10/07 11:50:29;;;;;;;12.73;10.07;;;28.30;75.90;;;;;;5031001;28;20060;-63
2023/10/07 11:53:35;;;;;;;14.75;10.75;;;28.80;76.60;;;;;;5031485;28;20527;-64
2023/10/07 11:56:43;;;;;;;23.38;11.07;;;28.30;76.20;;;;;;5031185;28;20036;-63
2023/10/07 11:59:47;;;;;;;15.95;9.50;;;28.30;76.80;;;;;;5030328;28;20044;-64
2023/10/07 12:02:52;;;;;;;10.98;8.63;;;28.30;76.30;;;;;;5031009;28;20045;-64
2023/10/07 12:05:58;;;;;;;16.58;8.88;;;28.30;77.10;;;;;;5030217;28;20049;-63
2023/10/07 12:09:06;;;;;;;16.38;10.82;;;28.30;77.30;;;;;;5031244;28;20056;-66
2023/10/07 12:12:11;;;;;;;11.73;8.88;;;28.30;76.90;;;;;;5030505;28;20052;-64
2023/10/07 12:15:17;;;;;;;18.00;9.65;;;28.30;77.40;;;;;;5031103;28;20056;-63
2023/10/07 12:18:21;;;;;;;16.00;9.98;;;28.30;78.00;;;;;;5030309;28;20648;-63
2023/10/07 12:21:27;;;;;;;13.15;9.32;;;28.40;78.20;;;;;;5031048;28;20044;-63
2023/10/07 12:24:34;;;;;;;11.40;9.10;;;28.20;78.10;;;;;;5030347;28;20056;-62
2023/10/07 12:27:39;;;;;;;14.85;9.48;;;28.10;77.80;;;;;;5031081;28;20052;-64
2023/10/07 12:30:44;;;;;;;11.30;8.90;;;28.10;78.70;;;;;;5030839;28;20049;-65
2023/10/07 12:33:50;;;;;;;11.20;8.98;;;28.10;79.30;;;;;;5034768;28;20393;-63
2023/10/07 12:36:54;;;;;;;15.32;9.68;;;28.10;80.10;;;;;;5033893;28;20048;-64
2023/10/07 12:39:58;;;;;;;16.10;8.82;;;28.10;79.70;;;;;;5032538;28;20057;-66
2023/10/07 12:43:02;;;;;;;13.68;9.63;;;28.00;79.70;;;;;;5032599;28;20044;-63
2023/10/07 12:46:09;;;;;;;17.40;9.10;;;27.90;80.30;;;;;;5032835;28;20095;-64
2023/10/07 12:49:16;;;;;;;11.90;9.05;;;28.00;81.00;;;;;;5033352;28;20500;-63
2023/10/07 12:52:20;;;;;;;15.07;8.98;;;28.00;80.90;;;;;;5032860;28;20264;-64
2023/10/07 12:55:32;;;;;;;30.38;14.02;;;27.90;81.70;;;;;;5034027;28;20044;-63
2023/10/07 12:58:35;;;;;;;16.95;10.60;;;27.90;81.40;;;;;;5033937;28;20503;-63
2023/10/07 13:01:39;;;;;;;24.50;12.68;;;27.70;80.40;;;;;;5034334;28;20048;-63
2023/10/07 13:04:47;;;;;;;12.13;10.02;;;27.90;80.60;;;;;;5034044;28;20036;-64
2023/10/07 13:07:56;;;;;;;19.08;10.27;;;27.80;80.90;;;;;;5033768;28;20543;-62
2023/10/07 13:11:00;;;;;;;17.48;9.88;;;27.80;81.30;;;;;;5033932;28;20504;-62
2023/10/07 13:14:05;;;;;;;11.95;9.27;;;27.80;81.30;;;;;;5033500;28;20052;-61
2023/10/07 13:17:13;;;;;;;17.17;10.00;;;27.80;82.00;;;;;;5032071;28;20052;-62
2023/10/07 13:20:23;;;;;;;12.27;9.30;;;27.80;81.40;;;;;;5031902;28;20045;-63
2023/10/07 13:23:27;;;;;;;13.03;8.60;;;27.70;80.80;;;;;;5031920;28;20523;-63
2023/10/07 13:26:31;;;;;;;12.50;9.40;;;27.70;81.00;;;;;;5031973;28;20790;-65
2023/10/07 13:29:36;;;;;;;9.77;8.27;;;27.70;81.30;;;;;;5030827;28;20408;-64
2023/10/07 13:32:41;;;;;;;15.57;9.25;;;27.70;80.90;;;;;;5033698;28;20045;-62
2023/10/07 13:35:45;;;;;;;15.05;9.68;;;27.60;81.40;;;;;;5033554;28;20063;-64
2023/10/07 13:38:50;;;;;;;9.07;8.13;;;;;;;;;;5033009;28;20044;-65
2023/10/07 13:41:55;;;;;;;15.95;9.30;;;26.80;80.10;;;;;;5031490;28;20041;-66
2023/10/07 13:45:07;;;;;;;12.38;8.70;;;27.60;81.30;;;;;;5030373;28;20067;-64
2023/10/07 13:48:11;;;;;;;11.93;8.85;;;27.30;80.90;;;;;;5031987;28;20120;-63
2023/10/07 13:51:15;;;;;;;12.13;8.35;;;27.50;81.70;;;;;;5032593;28;20452;-66
2023/10/07 13:54:23;;;;;;;14.43;9.43;;;27.40;81.60;;;;;;5032846;28;20037;-62
2023/10/07 13:57:31;;;;;;;17.77;9.23;;;27.40;82.20;;;;;;5033175;28;20045;-64
2023/10/07 14:03:39;;;;;;;13.10;10.55;;;27.30;83.60;;;;;;5031694;28;20052;-63
2023/10/07 14:06:43;;;;;;;20.17;10.02;;;27.30;84.10;;;;;;5032876;28;20057;-64
2023/10/07 14:09:49;;;;;;;19.75;10.30;;;27.30;84.90;;;;;;5031971;28;20061;-64
2023/10/07 14:12:53;;;;;;;10.63;9.10;;;27.00;85.80;;;;;;5032888;28;20056;-63
2023/10/07 14:15:57;;;;;;;14.48;10.75;;;27.20;86.40;;;;;;5032761;28;20052;-63
2023/10/07 14:19:01;;;;;;;18.13;11.23;;;27.10;87.40;;;;;;5032627;28;20044;-64
2023/10/07 14:22:05;;;;;;;34.53;13.38;;;27.10;87.50;;;;;;5032877;28;20064;-63
2023/10/07 14:25:09;;;;;;;16.05;10.23;;;27.10;88.20;;;;;;5032135;28;20048;-63
2023/10/07 14:28:13;;;;;;;22.95;11.18;;;27.00;88.60;;;;;;5032332;28;20044;-65
2023/10/07 14:31:18;;;;;;;17.48;11.25;;;27.00;89.00;;;;;;5032180;28;20169;-63
2023/10/07 14:34:24;;;;;;;19.00;11.35;;;27.00;89.40;;;;;;5032196;28;20105;-64
2023/10/07 14:37:30;;;;;;;12.90;9.80;;;26.90;89.90;;;;;;5032111;28;20056;-63
2023/10/07 14:40:38;;;;;;;15.50;11.00;;;26.90;90.00;;;;;;5032473;28;20044;-63
2023/10/07 14:43:44;;;;;;;23.17;12.82;;;26.90;90.20;;;;;;5032127;28;20113;-64
2023/10/07 14:46:48;;;;;;;19.90;11.10;;;26.80;90.70;;;;;;5031908;28;20032;-63
2023/10/07 14:49:52;;;;;;;15.63;11.35;;;26.90;90.70;;;;;;5030015;28;20052;-64
2023/10/07 14:52:57;;;;;;;29.52;12.52;;;26.80;90.90;;;;;;5031229;28;20087;-64
2023/10/07 14:56:24;;;;;;;20.27;11.80;;;26.80;90.80;;;;;;5031393;28;20044;-65
2023/10/07 14:59:28;;;;;;;20.25;12.55;;;26.80;91.10;;;;;;5031685;28;20041;-64
2023/10/07 15:02:32;;;;;;;19.75;11.95;;;26.70;91.40;;;;;;5019543;28;20048;-63
2023/10/07 15:05:37;;;;;;;19.05;11.95;;;26.70;91.30;;;;;;5031703;28;20048;-64
2023/10/07 15:08:42;;;;;;;18.67;12.32;;;26.60;91.70;;;;;;5031516;28;20044;-66
2023/10/07 15:11:48;;;;;;;20.17;13.10;;;26.60;91.70;;;;;;5031625;28;20057;-63
2023/10/07 15:14:55;;;;;;;20.50;12.63;;;26.60;91.90;;;;;;5030895;28;20052;-65
2023/10/07 15:17:59;;;;;;;20.27;11.85;;;26.50;91.60;;;;;;5031565;28;20075;-64
2023/10/07 15:21:07;;;;;;;15.35;12.02;;;26.50;91.80;;;;;;5031408;28;20060;-63
2023/10/07 15:24:13;;;;;;;18.85;11.77;;;26.50;91.70;;;;;;5029643;28;20052;-64
2023/10/07 15:27:17;;;;;;;14.32;11.93;;;26.50;92.00;;;;;;5030050;28;20036;-65
2023/10/07 15:30:21;;;;;;;15.15;11.20;;;26.50;92.20;;;;;;5029407;28;20049;-64
2023/10/07 15:33:26;;;;;;;15.80;12.38;;;26.40;92.20;;;;;;5030352;28;20055;-64
2023/10/07 15:36:30;;;;;;;20.50;12.23;;;27.10;92.50;;;;;;5030298;28;20355;-63
2023/10/07 15:39:34;;;;;;;17.25;11.80;;;26.30;92.60;;;;;;5030903;28;20041;-64
2023/10/07 15:42:38;;;;;;;21.80;11.45;;;26.30;92.70;;;;;;5030228;28;20048;-63
2023/10/07 15:45:50;;;;;;;18.17;12.10;;;26.30;92.80;;;;;;5031128;28;20397;-63
2023/10/07 15:49:10;;;;;;;17.73;11.45;;;26.20;93.00;;;;;;5030809;28;20060;-63
2023/10/07 15:52:14;;;;;;;20.70;13.02;;;26.80;93.10;;;;;;5030908;28;20052;-68
2023/10/07 15:55:19;;;;;;;17.80;12.77;;;26.10;92.90;;;;;;5031145;28;20393;-69
2023/10/07 15:58:23;;;;;;;19.85;14.05;;;26.00;93.10;;;;;;5031075;28;20492;-69
2023/10/07 16:01:27;;;;;;;17.52;13.32;;;26.00;93.30;;;;;;5029858;28;20053;-69
2023/10/07 16:04:33;;;;;;;22.13;13.90;;;26.00;93.60;;;;;;5030969;28;20048;-69
2023/10/07 16:07:38;;;;;;;21.98;13.93;;;25.90;93.60;;;;;;5030477;28;20041;-68
2023/10/07 16:10:42;;;;;;;25.92;14.00;;;25.90;93.50;;;;;;5030943;28;20048;-68
2023/10/07 16:13:46;;;;;;;20.70;14.23;;;25.80;93.40;;;;;;5030759;28;20057;-69
2023/10/07 16:16:52;;;;;;;17.58;12.45;;;25.80;93.60;;;;;;5030852;28;20052;-69
2023/10/07 16:19:56;;;;;;;21.52;12.88;;;25.70;93.50;;;;;;5030892;28;20495;-68
2023/10/07 16:23:01;;;;;;;23.42;13.75;;;25.70;93.40;;;;;;5030532;28;20060;-69
2023/10/07 16:26:06;;;;;;;24.92;14.45;;;25.70;93.60;;;;;;5030546;28;20052;-68
2023/10/07 16:29:11;;;;;;;26.73;15.02;;;25.60;93.60;;;;;;5030620;28;20044;-68
2023/10/07 16:32:18;;;;;;;37.20;16.38;;;25.20;93.70;;;;;;5030799;28;20052;-68
2023/10/07 16:35:22;;;;;;;20.08;14.07;;;25.50;92.70;;;;;;5030517;28;20044;-69
2023/10/07 16:38:25;;;;;;;25.40;14.82;;;25.50;92.60;;;;;;5029656;28;20134;-67
2023/10/07 16:41:31;;;;;;;28.52;15.45;;;25.50;92.70;;;;;;5029723;28;20045;-68
2023/10/07 16:44:35;;;;;;;26.65;14.50;;;25.40;92.50;;;;;;5030240;28;20064;-69
2023/10/07 16:47:39;;;;;;;22.25;13.13;;;25.40;92.20;;;;;;5030388;28;20066;-68
2023/10/07 16:50:43;;;;;;;20.20;13.73;;;25.30;92.00;;;;;;5030079;28;20500;-68
2023/10/07 16:53:47;;;;;;;23.08;14.80;;;25.30;92.10;;;;;;5030499;28;20376;-69